map of OMAH home
OMAH - Airport
Location
City:  Al Hamra Main, Abu Dhabi, United Arab Emirates
Name:Al Hamra Aux
ICAO:OMAH

Details
Type:Airport (Aerodrome, Airfield)
Latitude:2404'26"N (24.073981)
Longitude:5227'49"E (52.463644)
Datum:WGS 1984
Elevation:50 ft (15 m)
Variation:2.24E (WMM2015v2 magnetic declination)
0.05 annual change
Runways:1
Longest:8205 × 148 ft (2501 × 45 m), paved

Time
Time Zone:UTC+4
Local Time:

Weather
METAR:OMAH 041400Z 35012KT 9999 FEW025 19/12 Q1022 A3018

Related Locations
Nearby:
Farthest:GMR: 11976 mi / 19274 km
Mangareva [Totegegie], Gambier Islands, PF

Find:

   beyond  
but within

Other Information
Maps:
NOTAMs:
Links:
Sources:

  
  • flag of United Arab Emirates
  • flag of Abu Dhabi
  

Sectional Chart

Flight Planning
at skyvector.com

Satellite Image

Google Maps Satellite view

 

Copyright © 2004-2019 Karl L. Swartz. All rights reserved.
The Great Circle Mapper name and logo are trademarks of the Great Circle Mapper.
All other trademarks mentioned herein belong to their respective owners.
Please see credits for attibutions and further copyright information.

  Follow gcmap on Facebook Follow gcmap on Twitter GCmap on LinkedIn

hCard Microformat

Geo Microformat